createdAt,value
2019-03-06T00:01:14.289Z,9.38
2019-03-06T00:03:43.912Z,9.37
2019-03-06T00:06:16.748Z,9.37
2019-03-06T00:08:44.163Z,9.33
2019-03-06T00:11:13.870Z,9.31
2019-03-06T00:13:43.123Z,9.31
2019-03-06T00:16:12.410Z,9.29
2019-03-06T00:18:43.112Z,9.27
2019-03-06T00:21:12.435Z,9.26
2019-03-06T00:23:42.001Z,9.27
2019-03-06T00:26:11.626Z,9.28
2019-03-06T00:28:40.862Z,9.30
2019-03-06T00:31:10.153Z,9.34
2019-03-06T00:33:39.738Z,9.33
2019-03-06T00:36:14.960Z,9.33
2019-03-06T00:38:44.215Z,9.35
2019-03-06T00:41:25.250Z,9.36
2019-03-06T00:43:54.545Z,9.37
2019-03-06T00:46:24.276Z,9.42
2019-03-06T00:48:53.557Z,9.37
2019-03-06T00:51:22.782Z,9.37
2019-03-06T00:53:52.699Z,9.36
2019-03-06T00:56:22.003Z,9.36
2019-03-06T00:58:51.275Z,9.36
2019-03-06T01:01:20.914Z,9.39
2019-03-06T01:03:50.266Z,9.39
2019-03-06T01:06:19.680Z,9.39
2019-03-06T01:08:49.554Z,9.39
2019-03-06T01:11:18.814Z,9.42
2019-03-06T01:13:48.065Z,9.39
2019-03-06T01:16:17.622Z,9.37
2019-03-06T01:18:46.953Z,9.39
2019-03-06T01:21:16.168Z,9.38
2019-03-06T01:23:47.035Z,9.33
2019-03-06T01:26:16.335Z,9.32
2019-03-06T01:28:45.567Z,9.36
2019-03-06T01:31:17.370Z,9.41
2019-03-06T01:33:51.691Z,9.41
2019-03-06T01:36:38.786Z,9.34
2019-03-06T01:39:33.366Z,9.28
2019-03-06T01:42:09.822Z,9.26
2019-03-06T01:44:45.724Z,9.28
2019-03-06T01:47:15.452Z,9.30
2019-03-06T01:49:44.994Z,9.31
2019-03-06T01:52:14.326Z,9.32
2019-03-06T01:54:44.037Z,9.33
2019-03-06T01:57:13.247Z,9.33
2019-03-06T01:59:42.564Z,9.33
2019-03-06T02:02:12.243Z,9.39
2019-03-06T02:04:41.499Z,9.38
2019-03-06T02:07:10.924Z,9.43
2019-03-06T02:09:41.155Z,9.40
2019-03-06T02:12:10.618Z,9.36
2019-03-06T02:14:39.929Z,9.41
2019-03-06T02:17:09.661Z,9.43
2019-03-06T02:19:38.985Z,9.39
2019-03-06T02:22:11.225Z,9.37
2019-03-06T02:24:40.922Z,9.36
2019-03-06T02:27:10.575Z,9.40
2019-03-06T02:29:39.956Z,9.31
2019-03-06T02:32:09.909Z,9.28
2019-03-06T02:34:39.305Z,9.29
2019-03-06T02:37:09.026Z,9.29
2019-03-06T02:39:38.679Z,9.24
2019-03-06T02:42:08.141Z,9.25
2019-03-06T02:44:39.982Z,9.30
2019-03-06T02:47:08.847Z,9.26
2019-03-06T02:49:38.208Z,9.25
2019-03-06T02:52:07.539Z,9.25
2019-03-06T02:54:37.152Z,9.23
2019-03-06T02:57:06.753Z,9.13
2019-03-06T03:00:00.927Z,9.09
2019-03-06T03:02:48.964Z,9.09
2019-03-06T03:05:46.381Z,9.04
2019-03-06T03:08:15.772Z,9.02
2019-03-06T03:10:45.237Z,9.08
2019-03-06T03:13:14.973Z,8.97
2019-03-06T03:15:44.288Z,8.92
2019-03-06T03:18:13.595Z,8.93
2019-03-06T03:20:43.474Z,8.94
2019-03-06T03:23:13.278Z,8.96
2019-03-06T03:25:42.576Z,8.92
2019-03-06T03:28:12.304Z,8.87
2019-03-06T03:30:41.540Z,8.84
2019-03-06T03:33:10.873Z,8.87
2019-03-06T03:35:40.840Z,8.86
2019-03-06T03:38:11.512Z,8.75
2019-03-06T03:40:40.714Z,8.71
2019-03-06T03:43:11.392Z,8.73
2019-03-06T03:45:40.634Z,8.75
2019-03-06T03:48:09.961Z,8.69
2019-03-06T03:50:39.678Z,8.64
2019-03-06T03:53:09.020Z,8.62
2019-03-06T03:55:38.445Z,8.62
2019-03-06T03:58:08.006Z,8.62
2019-03-06T04:00:37.752Z,8.65
2019-03-06T04:03:07.007Z,8.73
2019-03-06T04:05:36.741Z,8.70
2019-03-06T04:08:06.002Z,8.58
2019-03-06T04:10:35.248Z,8.56
2019-03-06T04:13:06.407Z,8.55
2019-03-06T04:15:35.688Z,8.52
2019-03-06T04:18:07.953Z,8.50
2019-03-06T04:20:37.707Z,8.48
2019-03-06T04:23:06.954Z,8.49
2019-03-06T04:25:36.373Z,8.49
2019-03-06T04:28:09.975Z,8.47
2019-03-06T04:30:39.200Z,8.49
2019-03-06T04:33:08.478Z,8.47
2019-03-06T04:35:38.283Z,8.46
2019-03-06T04:38:07.567Z,8.44
2019-03-06T04:40:36.863Z,8.40
2019-03-06T04:43:06.669Z,8.36
2019-03-06T04:45:35.935Z,8.37
2019-03-06T04:48:07.959Z,8.35
2019-03-06T04:50:37.669Z,8.32
2019-03-06T04:53:06.959Z,8.30
2019-03-06T04:55:36.256Z,8.32
2019-03-06T04:58:07.999Z,8.32
2019-03-06T05:00:37.410Z,8.25
2019-03-06T05:03:06.652Z,8.23
2019-03-06T05:05:36.280Z,8.17
2019-03-06T05:08:08.682Z,8.16
2019-03-06T05:10:37.950Z,8.06
2019-03-06T05:13:07.694Z,8.00
2019-03-06T05:15:39.059Z,8.03
2019-03-06T05:18:32.792Z,7.98
2019-03-06T05:21:03.797Z,7.93
2019-03-06T05:23:33.515Z,7.91
2019-03-06T05:26:04.507Z,7.93
2019-03-06T05:28:34.364Z,7.93
2019-03-06T05:31:05.351Z,7.89
2019-03-06T05:33:37.011Z,7.89
2019-03-06T05:36:36.446Z,7.87
2019-03-06T05:39:12.482Z,7.83
2019-03-06T05:41:44.866Z,7.81
2019-03-06T05:44:14.062Z,7.85
2019-03-06T05:46:43.991Z,7.83
2019-03-06T05:49:13.425Z,7.86
2019-03-06T05:51:42.898Z,7.86
2019-03-06T05:54:13.157Z,7.86
2019-03-06T05:56:42.380Z,7.89
2019-03-06T05:59:11.627Z,7.91
2019-03-06T06:01:41.397Z,7.96
2019-03-06T06:04:10.653Z,7.99
2019-03-06T06:09:14.411Z,8.12
2019-03-06T06:11:43.876Z,8.11
2019-03-06T06:14:13.149Z,8.09
2019-03-06T06:16:42.733Z,8.07
2019-03-06T06:19:12.039Z,8.02
2019-03-06T06:22:03.963Z,8.05
2019-03-06T06:24:33.578Z,8.08
2019-03-06T06:27:03.004Z,8.11
2019-03-06T06:29:32.351Z,8.16
2019-03-06T06:32:08.301Z,8.20
2019-03-06T06:34:37.606Z,8.22
2019-03-06T06:37:06.861Z,8.24
2019-03-06T06:39:37.641Z,8.29
2019-03-06T06:42:06.912Z,8.35
2019-03-06T06:44:36.176Z,8.42
2019-03-06T06:47:07.919Z,8.52
2019-03-06T06:49:37.246Z,8.56
2019-03-06T06:52:52.301Z,8.62
2019-03-06T06:55:53.529Z,8.67
2019-03-06T06:58:56.723Z,8.70
2019-03-06T07:02:19.880Z,8.81
2019-03-06T07:05:27.525Z,8.85
2019-03-06T07:08:30.639Z,8.98
2019-03-06T07:11:06.367Z,9.04
2019-03-06T07:13:51.885Z,9.11
2019-03-06T07:16:43.107Z,9.18
2019-03-06T07:19:16.163Z,9.26
2019-03-06T07:22:04.371Z,9.35
2019-03-06T07:24:52.618Z,9.45
2019-03-06T07:27:41.304Z,9.51
2019-03-06T07:30:29.084Z,9.61
2019-03-06T07:33:14.013Z,9.64
2019-03-06T07:36:14.793Z,9.77
2019-03-06T07:38:44.636Z,9.88
2019-03-06T07:41:35.479Z,9.93
2019-03-06T07:44:32.858Z,9.98
2019-03-06T07:47:30.289Z,10.05
2019-03-06T07:50:17.153Z,10.14
2019-03-06T07:53:36.711Z,10.18
2019-03-06T07:56:14.188Z,10.28
2019-03-06T07:58:57.006Z,10.23
2019-03-06T08:01:29.023Z,10.24
2019-03-06T08:04:05.271Z,10.32
2019-03-06T08:06:36.597Z,10.35
2019-03-06T08:09:14.698Z,10.34
2019-03-06T08:11:54.454Z,10.41
2019-03-06T08:14:41.551Z,10.51
2019-03-06T08:17:35.616Z,10.53
2019-03-06T08:20:42.455Z,10.62
2019-03-06T08:23:29.678Z,10.66
2019-03-06T08:26:02.939Z,10.69
2019-03-06T08:28:37.075Z,10.74
2019-03-06T08:31:21.947Z,10.96
2019-03-06T08:33:52.184Z,11.05
2019-03-06T08:36:21.881Z,11.18
2019-03-06T08:38:51.220Z,11.48
2019-03-06T08:41:20.740Z,11.57
2019-03-06T08:43:50.376Z,11.74
2019-03-06T08:46:38.654Z,11.98
2019-03-06T08:49:27.231Z,12.14
2019-03-06T08:52:05.790Z,12.21
2019-03-06T08:54:47.141Z,12.25
2019-03-06T08:57:42.073Z,12.28
2019-03-06T09:00:37.951Z,12.49
2019-03-06T09:03:36.503Z,12.74
2019-03-06T09:06:46.953Z,12.91
2019-03-06T09:09:35.006Z,12.87
2019-03-06T09:12:16.124Z,13.06
2019-03-06T09:15:13.594Z,13.25
2019-03-06T09:18:09.076Z,13.36
2019-03-06T09:20:53.356Z,13.47
2019-03-06T09:23:40.358Z,13.25
2019-03-06T09:26:34.737Z,13.16
2019-03-06T09:29:32.306Z,13.26
2019-03-06T09:32:29.349Z,13.28
2019-03-06T09:35:06.716Z,13.26
2019-03-06T09:37:45.277Z,13.32
2019-03-06T09:40:30.850Z,13.49
2019-03-06T09:43:19.107Z,13.57
2019-03-06T09:46:04.859Z,13.75
2019-03-06T09:48:42.984Z,13.99
2019-03-06T09:51:31.603Z,14.15
2019-03-06T09:54:18.626Z,14.27
2019-03-06T09:56:59.045Z,14.43
2019-03-06T09:59:33.357Z,14.49
2019-03-06T10:02:24.785Z,14.64
2019-03-06T10:05:11.860Z,14.83
2019-03-06T10:08:04.436Z,15.10
2019-03-06T10:10:57.504Z,15.21
2019-03-06T10:13:52.778Z,15.28
2019-03-06T10:16:53.006Z,15.57
2019-03-06T10:19:29.863Z,15.97
2019-03-06T10:21:59.363Z,16.40
2019-03-06T10:24:28.669Z,16.75
2019-03-06T10:26:58.308Z,17.07
2019-03-06T10:29:30.393Z,17.37
2019-03-06T10:31:59.646Z,17.56
2019-03-06T10:34:29.632Z,17.84
2019-03-06T10:36:59.838Z,18.21
2019-03-06T10:39:29.419Z,18.59
2019-03-06T10:41:59.222Z,18.88
2019-03-06T10:46:59.535Z,19.20
2019-03-06T10:49:29.486Z,19.40
2019-03-06T10:51:58.795Z,19.08
2019-03-06T10:54:28.129Z,18.81
2019-03-06T10:56:57.815Z,18.58
2019-03-06T10:59:27.122Z,18.49
2019-03-06T11:01:56.399Z,18.23
2019-03-06T11:04:33.050Z,17.90
2019-03-06T11:07:02.421Z,17.63
2019-03-06T11:09:31.847Z,17.49
2019-03-06T11:12:03.512Z,17.44
2019-03-06T11:14:35.384Z,17.53
2019-03-06T11:17:04.347Z,17.75
2019-03-06T11:19:34.393Z,17.98
2019-03-06T11:22:05.840Z,18.36
2019-03-06T11:24:35.251Z,18.70
2019-03-06T11:27:05.496Z,18.83
2019-03-06T11:29:34.830Z,18.97
2019-03-06T11:32:05.248Z,19.23
2019-03-06T11:34:34.996Z,19.28
2019-03-06T11:37:04.459Z,19.33
2019-03-06T11:39:34.622Z,19.40
2019-03-06T11:42:04.952Z,19.48
2019-03-06T11:44:34.509Z,19.36
2019-03-06T11:47:03.807Z,19.47
2019-03-06T11:49:33.447Z,19.54
2019-03-06T11:52:06.558Z,19.49
2019-03-06T11:54:39.042Z,19.25
2019-03-06T11:57:08.911Z,19.23
2019-03-06T11:59:38.325Z,19.28
2019-03-06T12:02:07.842Z,19.71
2019-03-06T12:04:38.038Z,20.09
2019-03-06T12:07:08.805Z,20.17
2019-03-06T12:09:38.085Z,20.10
2019-03-06T12:12:07.858Z,20.02
2019-03-06T12:14:37.162Z,19.87
2019-03-06T12:17:10.047Z,19.78
2019-03-06T12:19:39.986Z,19.57
2019-03-06T12:22:09.234Z,19.50
2019-03-06T12:24:38.644Z,19.57
2019-03-06T12:27:08.516Z,20.14
2019-03-06T12:29:41.056Z,20.86
2019-03-06T12:32:10.596Z,21.20
2019-03-06T12:34:40.392Z,20.92
2019-03-06T12:37:09.694Z,21.04
2019-03-06T12:39:39.163Z,21.51
2019-03-06T12:42:14.387Z,22.23
2019-03-06T12:44:40.634Z,22.32
2019-03-06T12:47:11.001Z,22.25
2019-03-06T12:49:40.804Z,22.07
2019-03-06T12:52:10.068Z,22.28
2019-03-06T12:54:39.404Z,22.41
2019-03-06T12:57:08.871Z,22.40
2019-03-06T12:59:41.095Z,22.76
2019-03-06T13:02:11.456Z,23.44
2019-03-06T13:04:42.149Z,23.79
2019-03-06T13:07:11.466Z,24.35
2019-03-06T13:09:40.772Z,24.83
2019-03-06T13:12:10.405Z,24.87
2019-03-06T13:14:39.768Z,25.14
2019-03-06T13:17:11.510Z,25.50
2019-03-06T13:19:40.867Z,26.31
2019-03-06T13:22:11.421Z,26.22
2019-03-06T13:24:41.681Z,25.74
2019-03-06T13:27:11.072Z,24.88
2019-03-06T13:29:40.364Z,23.98
2019-03-06T13:32:11.910Z,23.62
2019-03-06T13:34:51.517Z,23.78
2019-03-06T13:37:19.397Z,24.00
2019-03-06T13:39:48.749Z,24.06
2019-03-06T13:42:18.549Z,23.24
2019-03-06T13:44:49.265Z,23.24
2019-03-06T13:47:19.381Z,23.65
2019-03-06T13:49:49.872Z,23.90
2019-03-06T13:52:19.677Z,24.18
2019-03-06T13:54:49.606Z,24.19
2019-03-06T13:57:22.659Z,24.15
2019-03-06T13:59:52.523Z,23.89
2019-03-06T14:02:23.031Z,23.41
2019-03-06T14:04:53.248Z,23.22
2019-03-06T14:07:23.289Z,23.04
2019-03-06T14:09:54.018Z,23.29
2019-03-06T14:12:23.607Z,23.55
2019-03-06T14:14:53.801Z,23.28
2019-03-06T14:17:23.834Z,22.59
2019-03-06T14:19:54.085Z,22.15
2019-03-06T14:22:23.662Z,21.99
2019-03-06T14:24:56.304Z,20.14
2019-03-06T14:27:25.803Z,18.80
2019-03-06T14:29:55.224Z,18.14
2019-03-06T14:32:25.774Z,18.01
2019-03-06T14:34:55.699Z,18.33
2019-03-06T14:37:25.123Z,18.35
2019-03-06T14:39:55.099Z,17.92
2019-03-06T14:42:24.678Z,18.28
2019-03-06T14:44:54.188Z,18.68
2019-03-06T14:47:25.021Z,18.63
2019-03-06T14:49:54.542Z,18.61
2019-03-06T14:52:24.197Z,18.36
2019-03-06T14:54:53.975Z,18.34
2019-03-06T14:57:23.753Z,18.18
2019-03-06T14:59:53.351Z,18.26
2019-03-06T15:02:23.161Z,18.01
2019-03-06T15:04:52.628Z,17.88
2019-03-06T15:07:21.950Z,17.64
2019-03-06T15:09:51.776Z,17.56
2019-03-06T15:12:21.426Z,17.60
2019-03-06T15:14:51.078Z,17.24
2019-03-06T15:17:20.909Z,16.98
2019-03-06T15:19:50.529Z,17.10
2019-03-06T15:22:20.150Z,17.20
2019-03-06T15:24:50.224Z,17.12
2019-03-06T15:27:20.091Z,17.04
2019-03-06T15:29:49.494Z,17.07
2019-03-06T15:32:19.426Z,17.06
2019-03-06T15:34:49.428Z,16.92
2019-03-06T15:37:19.095Z,16.86
2019-03-06T15:39:49.219Z,16.86
2019-03-06T15:42:19.094Z,16.88
2019-03-06T15:44:48.888Z,16.95
2019-03-06T15:47:19.096Z,16.86
2019-03-06T15:49:49.915Z,16.91
2019-03-06T15:52:19.709Z,16.89
2019-03-06T15:54:50.046Z,16.74
2019-03-06T15:57:19.969Z,16.72
2019-03-06T15:59:49.805Z,16.69
2019-03-06T16:02:20.008Z,16.68
2019-03-06T16:04:49.863Z,16.66
2019-03-06T16:07:19.988Z,16.59
2019-03-06T16:09:55.254Z,16.65
2019-03-06T16:12:25.076Z,16.67
2019-03-06T16:14:55.820Z,16.55
2019-03-06T16:17:26.179Z,16.43
2019-03-06T16:19:56.594Z,16.32
2019-03-06T16:22:26.354Z,16.22
2019-03-06T16:25:09.386Z,16.26
2019-03-06T16:27:40.121Z,16.34
2019-03-06T16:30:11.806Z,16.30
2019-03-06T16:32:41.645Z,16.35
2019-03-06T16:35:11.769Z,16.34
2019-03-06T16:37:44.103Z,16.33
2019-03-06T16:40:18.619Z,16.31
2019-03-06T16:42:49.186Z,16.29
2019-03-06T16:45:20.172Z,16.21
2019-03-06T16:47:51.420Z,16.26
2019-03-06T16:50:21.763Z,16.29
2019-03-06T16:52:54.695Z,16.14
2019-03-06T16:55:25.040Z,16.12
2019-03-06T16:57:58.074Z,16.07
2019-03-06T17:00:30.580Z,16.09
2019-03-06T17:03:01.338Z,15.98
2019-03-06T17:05:33.170Z,16.04
2019-03-06T17:08:04.418Z,16.02
2019-03-06T17:10:34.695Z,15.99
2019-03-06T17:13:05.039Z,16.03
2019-03-06T17:15:35.456Z,16.00
2019-03-06T17:18:08.482Z,16.01
2019-03-06T17:20:39.498Z,15.96
2019-03-06T17:23:09.362Z,15.94
2019-03-06T17:25:39.267Z,15.96
2019-03-06T17:28:09.654Z,15.94
2019-03-06T17:30:39.381Z,15.95
2019-03-06T17:33:10.004Z,15.99
2019-03-06T17:35:40.696Z,15.98
2019-03-06T17:38:11.403Z,15.89
2019-03-06T17:40:41.745Z,15.93
2019-03-06T17:43:12.553Z,15.96
2019-03-06T17:45:44.120Z,15.87
2019-03-06T17:48:14.137Z,15.84
2019-03-06T17:50:44.730Z,15.87
2019-03-06T17:53:14.974Z,15.90
2019-03-06T17:55:45.731Z,15.93
2019-03-06T17:58:16.489Z,15.95
2019-03-06T18:00:51.984Z,15.96
2019-03-06T18:03:34.688Z,15.96
2019-03-06T18:08:44.356Z,15.99
2019-03-06T18:11:23.123Z,15.93
2019-03-06T18:13:53.594Z,15.94
2019-03-06T18:16:23.663Z,15.92
2019-03-06T18:18:53.746Z,15.93
2019-03-06T18:21:24.947Z,15.93
2019-03-06T18:23:54.679Z,15.94
2019-03-06T18:26:24.327Z,15.92
2019-03-06T18:28:54.713Z,15.93
2019-03-06T18:31:24.887Z,15.93
2019-03-06T18:33:56.269Z,15.93
2019-03-06T18:36:26.823Z,15.92
2019-03-06T18:38:58.019Z,15.91
2019-03-06T18:41:28.116Z,15.89
2019-03-06T18:43:58.513Z,15.87
2019-03-06T18:46:28.666Z,15.86
2019-03-06T18:48:58.398Z,15.84
2019-03-06T18:51:30.018Z,15.81
2019-03-06T18:53:59.881Z,15.80
2019-03-06T18:56:30.562Z,15.77
2019-03-06T18:59:00.901Z,15.77
2019-03-06T19:01:30.693Z,15.65
2019-03-06T19:04:02.746Z,15.59
2019-03-06T19:06:33.494Z,15.64
2019-03-06T19:09:04.190Z,15.66
2019-03-06T19:11:34.070Z,15.68
2019-03-06T19:14:06.620Z,15.69
2019-03-06T19:16:36.337Z,15.69
2019-03-06T19:19:06.320Z,15.68
2019-03-06T19:21:36.415Z,15.69
2019-03-06T19:24:06.821Z,15.69
2019-03-06T19:26:36.723Z,15.68
2019-03-06T19:29:06.914Z,15.66
2019-03-06T19:31:38.494Z,15.66
2019-03-06T19:34:08.366Z,15.66
2019-03-06T19:36:44.450Z,15.64
2019-03-06T19:39:14.675Z,15.61
2019-03-06T19:41:44.509Z,15.63
2019-03-06T19:44:16.293Z,15.63
2019-03-06T19:46:46.017Z,15.64
2019-03-06T19:49:15.925Z,15.65
2019-03-06T19:51:51.481Z,15.65
2019-03-06T19:54:19.065Z,15.67
2019-03-06T19:56:49.942Z,15.62
2019-03-06T19:59:20.779Z,15.45
2019-03-06T20:01:52.462Z,15.40
2019-03-06T20:04:22.417Z,15.43
2019-03-06T20:06:54.885Z,15.41
2019-03-06T20:09:28.542Z,15.46
2019-03-06T20:12:03.561Z,15.47
2019-03-06T20:14:33.401Z,15.31
2019-03-06T20:17:20.222Z,15.27
2019-03-06T20:19:53.238Z,15.37
2019-03-06T20:22:23.559Z,15.35
2019-03-06T20:24:55.181Z,15.29
2019-03-06T20:27:25.279Z,15.35
2019-03-06T20:29:55.574Z,15.41
2019-03-06T20:32:25.604Z,15.41
2019-03-06T20:34:55.650Z,15.42
2019-03-06T20:37:25.572Z,15.42
2019-03-06T20:39:55.821Z,15.41
2019-03-06T20:42:25.739Z,15.44
2019-03-06T20:44:55.942Z,15.43
2019-03-06T20:47:29.554Z,15.39
2019-03-06T20:49:59.413Z,15.35
2019-03-06T20:52:32.453Z,15.39
2019-03-06T20:55:02.683Z,15.31
2019-03-06T20:57:32.474Z,15.31
2019-03-06T21:00:03.114Z,15.27
2019-03-06T21:02:36.294Z,15.32
2019-03-06T21:05:06.279Z,15.31
2019-03-06T21:07:44.839Z,15.32
2019-03-06T21:10:09.242Z,15.34
2019-03-06T21:12:39.165Z,15.35
2019-03-06T21:15:10.123Z,15.37
2019-03-06T21:17:40.339Z,15.38
2019-03-06T21:20:12.594Z,15.35
2019-03-06T21:22:42.542Z,15.35
2019-03-06T21:25:15.721Z,15.35
2019-03-06T21:27:45.754Z,15.41
2019-03-06T21:30:19.012Z,15.41
2019-03-06T21:33:02.236Z,15.37
2019-03-06T21:35:32.360Z,15.40
2019-03-06T21:38:03.199Z,15.40
2019-03-06T21:40:33.365Z,15.39
2019-03-06T21:43:03.219Z,15.42
2019-03-06T21:45:33.933Z,15.44
2019-03-06T21:48:05.695Z,15.40
2019-03-06T21:50:37.486Z,15.39
2019-03-06T21:53:07.002Z,15.31
2019-03-06T21:55:36.923Z,15.35
2019-03-06T21:58:07.349Z,15.38
2019-03-06T22:00:37.022Z,15.34
2019-03-06T22:03:06.754Z,15.17
2019-03-06T22:05:37.212Z,15.13
2019-03-06T22:08:07.210Z,15.24
2019-03-06T22:10:37.156Z,15.04
2019-03-06T22:13:06.587Z,15.12
2019-03-06T22:15:35.828Z,15.13
2019-03-06T22:18:06.789Z,15.15
2019-03-06T22:20:36.300Z,15.15
2019-03-06T22:23:05.716Z,15.18
2019-03-06T22:25:35.479Z,15.17
2019-03-06T22:28:05.868Z,15.18
2019-03-06T22:30:35.122Z,15.15
2019-03-06T22:33:04.902Z,15.17
2019-03-06T22:35:34.159Z,15.16
2019-03-06T22:38:06.486Z,15.20
2019-03-06T22:40:36.127Z,15.20
2019-03-06T22:43:05.577Z,15.16
2019-03-06T22:45:35.007Z,15.13
2019-03-06T22:48:08.554Z,15.03
2019-03-06T22:50:37.947Z,15.06
2019-03-06T22:53:07.421Z,15.08
2019-03-06T22:55:36.939Z,15.09
2019-03-06T22:58:09.242Z,15.09
2019-03-06T23:00:48.822Z,15.10
2019-03-06T23:03:18.763Z,15.11
2019-03-06T23:05:51.084Z,15.10
2019-03-06T23:08:22.164Z,15.05
2019-03-06T23:10:52.186Z,15.06
2019-03-06T23:13:22.494Z,15.07
2019-03-06T23:15:52.421Z,14.95
2019-03-06T23:18:22.299Z,14.99
2019-03-06T23:20:52.125Z,15.02
2019-03-06T23:23:22.609Z,15.00
2019-03-06T23:25:52.401Z,15.03
2019-03-06T23:28:21.965Z,15.02
2019-03-06T23:30:52.142Z,15.03
2019-03-06T23:33:22.190Z,15.05
2019-03-06T23:35:51.654Z,15.04
2019-03-06T23:38:21.739Z,15.01
2019-03-06T23:40:51.618Z,15.06
2019-03-06T23:43:21.453Z,15.03
2019-03-06T23:45:51.524Z,15.04
2019-03-06T23:48:27.702Z,15.05
2019-03-06T23:50:57.364Z,15.06
2019-03-06T23:53:41.528Z,15.08
2019-03-06T23:56:11.433Z,15.06
2019-03-06T23:58:41.769Z,15.05
